Grays River, WA (98621)

4:15 AM PDT on August 20, 2014 (GMT -0700)
MesoWest | Change Station
CLOSE
Current Station
Personal Weather Station
Location: Grays River, WA
Elevation: 811 ft
Nearby Weather Stations

Elev 811 ft 46.35 °N, 123.51 °W | Updated 3 days ago

Mostly Cloudy
Mostly Cloudy
55 °F
Feels Like 55 °F
N
5
Wind Variable Wind from West
Gusts 9 mph

Today
High -- | Low -- °F
--% Chance of Precip.
Yesterday
High -- | Low -- °F
Precip. -- in
6:19 AM 8:14 PM
Waning Crescent, 22% visible
Pressure 29.93 in
Visibility 7.0 miles
Clouds Clear
Dew Point 54 °F
Humidity 94%
Rainfall -9999.00 in
Snow Depth Not available.
UV 0 out of 12
Pollen 2.80 out of 12
Air Quality Not available.
Flu Activity Not available.
METAR KAST 201055Z AUTO 23003KT 7SM CLR 12/12 A2993 RMK AO2 SLP133 T01220117

More Conditions Fewer Conditions

Pressure 29.93 in
Visibility 7.0 miles
Clouds Clear
Dew Point 54 °F
Humidity 94%
Rainfall -9999.00 in
Snow Depth Not available.
UV 0 out of 12
Pollen 2.80 out of 12
Air Quality Not available.
Flu Activity Not available.
METAR KAST 201055Z AUTO 23003KT 7SM CLR 12/12 A2993 RMK AO2 SLP133 T01220117

More Conditions Fewer Conditions

10-Day Weather Forecast

Almanac

Astronomy

Aug. 20, 2014 Rise Set
Actual Time 6:19 AM PDT 8:14 PM PDT
Civil Twilight 5:47 AM PDT 8:47 PM PDT
Nautical Twilight 5:07 AM PDT 9:26 PM PDT
Astronomical Twilight 4:23 AM PDT 10:10 PM PDT
Moon 1:57 AM PDT 5:10 PM PDT
Length of Visible Light 14h 59m
Length of Day
13h 55m
Tomorrow will be 3m 2s shorter.
Waning Crescent, 22% of the Moon is Illuminated
Today
Waning Crescent
Aug 25
New
Sep 2
First Quarter
Sep 8
Full
Sep 15
Last Quarter

Today's Extremes

State Highs State Lows

Community

WunderPhotos

Upload Photos

1,745,609 photos uploaded!

Nearby

Snow Depth

Station Depth Elevation
Spirit Lake 0 in 3120 ft
Swift Creek 1 in 3770 ft
June Lake 0 in 3340 ft
Lone Pine 0 in 3800 ft
Spencer Meadow 0 in 3400 ft

Earthquake Activity

City Distance Mag. Time & Date
No recent earthquake activity has been reported nearby.
Minimum magnitude displayed is 2.5.

Coastal Water Temperatures

Place Temperature
Astoria, OR 69.1 °F
Westport, WA 59.0 °F

Nearby Weather Stations